sensor_id;sensor_type;location;lat;lon;timestamp;P1;durP1;ratioP1;P2;durP2;ratioP2
23490;SDS011;14683;50.038;8.078;2023-04-09T06:01:09;21.88;;;13.73;;
23490;SDS011;14683;50.038;8.078;2023-04-09T06:03:36;23.38;;;15.27;;
23490;SDS011;14683;50.038;8.078;2023-04-09T06:08:27;25.02;;;14.88;;
23490;SDS011;14683;50.038;8.078;2023-04-09T06:10:53;22.73;;;14.88;;
23490;SDS011;14683;50.038;8.078;2023-04-09T06:13:20;28.73;;;17.77;;
23490;SDS011;14683;50.038;8.078;2023-04-09T06:18:13;20.50;;;13.75;;
23490;SDS011;14683;50.038;8.078;2023-04-09T06:23:06;22.02;;;14.20;;
23490;SDS011;14683;50.038;8.078;2023-04-09T06:27:57;22.17;;;13.82;;
23490;SDS011;14683;50.038;8.078;2023-04-09T06:30:23;23.40;;;14.68;;
23490;SDS011;14683;50.038;8.078;2023-04-09T06:32:50;17.98;;;12.68;;
23490;SDS011;14683;50.038;8.078;2023-04-09T06:35:16;20.48;;;14.00;;
23490;SDS011;14683;50.038;8.078;2023-04-09T06:37:42;21.08;;;13.80;;
23490;SDS011;14683;50.038;8.078;2023-04-09T06:40:08;23.98;;;14.98;;
23490;SDS011;14683;50.038;8.078;2023-04-09T06:42:34;19.80;;;13.43;;
23490;SDS011;14683;50.038;8.078;2023-04-09T06:45:11;23.40;;;14.27;;
23490;SDS011;14683;50.038;8.078;2023-04-09T06:47:37;22.58;;;14.30;;
23490;SDS011;14683;50.038;8.078;2023-04-09T06:50:04;21.90;;;14.63;;
23490;SDS011;14683;50.038;8.078;2023-04-09T06:52:30;21.75;;;13.82;;
23490;SDS011;14683;50.038;8.078;2023-04-09T06:54:56;20.52;;;13.48;;
23490;SDS011;14683;50.038;8.078;2023-04-09T06:57:22;24.13;;;14.73;;
23490;SDS011;14683;50.038;8.078;2023-04-09T06:59:48;22.15;;;14.30;;
23490;SDS011;14683;50.038;8.078;2023-04-09T07:02:14;18.92;;;13.50;;
23490;SDS011;14683;50.038;8.078;2023-04-09T07:04:40;23.27;;;15.02;;
23490;SDS011;14683;50.038;8.078;2023-04-09T07:07:06;21.33;;;14.18;;
23490;SDS011;14683;50.038;8.078;2023-04-09T07:09:32;22.05;;;13.40;;
23490;SDS011;14683;50.038;8.078;2023-04-09T07:11:58;18.88;;;13.38;;
23490;SDS011;14683;50.038;8.078;2023-04-09T07:14:24;20.98;;;13.95;;
23490;SDS011;14683;50.038;8.078;2023-04-09T07:16:50;20.65;;;13.57;;
23490;SDS011;14683;50.038;8.078;2023-04-09T07:19:16;22.02;;;13.25;;
23490;SDS011;14683;50.038;8.078;2023-04-09T07:21:42;19.75;;;13.18;;
23490;SDS011;14683;50.038;8.078;2023-04-09T07:24:08;21.48;;;14.70;;
23490;SDS011;14683;50.038;8.078;2023-04-09T07:26:34;19.38;;;13.55;;
23490;SDS011;14683;50.038;8.078;2023-04-09T07:29:00;21.10;;;13.63;;
23490;SDS011;14683;50.038;8.078;2023-04-09T07:31:28;20.98;;;14.15;;
23490;SDS011;14683;50.038;8.078;2023-04-09T07:33:54;22.25;;;14.65;;
23490;SDS011;14683;50.038;8.078;2023-04-09T07:36:20;20.75;;;14.07;;
23490;SDS011;14683;50.038;8.078;2023-04-09T07:38:46;22.10;;;14.73;;
23490;SDS011;14683;50.038;8.078;2023-04-09T07:41:13;23.63;;;15.18;;
23490;SDS011;14683;50.038;8.078;2023-04-09T07:43:39;22.30;;;15.30;;
23490;SDS011;14683;50.038;8.078;2023-04-09T07:46:05;22.13;;;14.38;;
23490;SDS011;14683;50.038;8.078;2023-04-09T07:48:31;23.35;;;15.80;;
23490;SDS011;14683;50.038;8.078;2023-04-09T07:50:57;22.88;;;15.13;;
23490;SDS011;14683;50.038;8.078;2023-04-09T07:53:23;21.92;;;15.10;;
23490;SDS011;14683;50.038;8.078;2023-04-09T07:55:50;22.52;;;14.82;;
23490;SDS011;14683;50.038;8.078;2023-04-09T07:58:16;21.80;;;15.63;;
23490;SDS011;14683;50.038;8.078;2023-04-09T08:00:42;24.27;;;16.35;;
23490;SDS011;14683;50.038;8.078;2023-04-09T08:03:08;24.83;;;15.48;;
23490;SDS011;14683;50.038;8.078;2023-04-09T08:05:34;25.55;;;16.77;;
23490;SDS011;14683;50.038;8.078;2023-04-09T08:08:03;24.73;;;15.18;;
23490;SDS011;14683;50.038;8.078;2023-04-09T08:10:29;24.00;;;15.95;;
23490;SDS011;14683;50.038;8.078;2023-04-09T08:12:55;25.00;;;16.15;;
23490;SDS011;14683;50.038;8.078;2023-04-09T08:15:21;23.30;;;15.70;;
23490;SDS011;14683;50.038;8.078;2023-04-09T08:17:49;25.10;;;17.13;;
23490;SDS011;14683;50.038;8.078;2023-04-09T08:22:41;22.57;;;14.53;;
23490;SDS011;14683;50.038;8.078;2023-04-09T08:25:08;23.60;;;15.30;;
23490;SDS011;14683;50.038;8.078;2023-04-09T08:27:40;24.98;;;15.75;;
23490;SDS011;14683;50.038;8.078;2023-04-09T08:30:06;24.92;;;15.88;;
23490;SDS011;14683;50.038;8.078;2023-04-09T08:32:33;25.02;;;16.15;;
23490;SDS011;14683;50.038;8.078;2023-04-09T08:35:00;23.63;;;15.82;;
23490;SDS011;14683;50.038;8.078;2023-04-09T08:37:26;25.00;;;16.15;;
23490;SDS011;14683;50.038;8.078;2023-04-09T08:39:52;25.73;;;17.58;;
23490;SDS011;14683;50.038;8.078;2023-04-09T08:42:18;22.27;;;15.57;;
23490;SDS011;14683;50.038;8.078;2023-04-09T08:44:46;24.70;;;16.42;;
23490;SDS011;14683;50.038;8.078;2023-04-09T08:47:12;24.45;;;16.15;;
23490;SDS011;14683;50.038;8.078;2023-04-09T08:49:38;23.83;;;16.05;;
23490;SDS011;14683;50.038;8.078;2023-04-09T08:52:05;24.42;;;15.80;;
23490;SDS011;14683;50.038;8.078;2023-04-09T08:56:57;22.67;;;15.02;;
23490;SDS011;14683;50.038;8.078;2023-04-09T09:02:05;21.90;;;15.10;;
23490;SDS011;14683;50.038;8.078;2023-04-09T09:04:48;24.45;;;16.25;;
23490;SDS011;14683;50.038;8.078;2023-04-09T09:07:15;24.30;;;15.73;;
23490;SDS011;14683;50.038;8.078;2023-04-09T09:09:55;26.08;;;16.73;;
23490;SDS011;14683;50.038;8.078;2023-04-09T09:12:38;23.15;;;15.68;;
23490;SDS011;14683;50.038;8.078;2023-04-09T09:15:27;21.50;;;14.80;;
23490;SDS011;14683;50.038;8.078;2023-04-09T09:17:56;23.48;;;16.13;;
23490;SDS011;14683;50.038;8.078;2023-04-09T09:20:24;23.95;;;16.42;;
23490;SDS011;14683;50.038;8.078;2023-04-09T09:22:52;25.50;;;16.92;;
23490;SDS011;14683;50.038;8.078;2023-04-09T09:25:20;23.67;;;15.85;;
23490;SDS011;14683;50.038;8.078;2023-04-09T09:27:50;22.55;;;16.10;;
23490;SDS011;14683;50.038;8.078;2023-04-09T09:30:21;29.70;;;18.00;;
23490;SDS011;14683;50.038;8.078;2023-04-09T09:33:09;23.63;;;15.52;;
23490;SDS011;14683;50.038;8.078;2023-04-09T09:35:46;22.83;;;15.25;;
23490;SDS011;14683;50.038;8.078;2023-04-09T09:38:16;21.88;;;15.48;;
23490;SDS011;14683;50.038;8.078;2023-04-09T09:40:43;22.30;;;15.70;;
23490;SDS011;14683;50.038;8.078;2023-04-09T09:43:09;22.50;;;16.08;;
23490;SDS011;14683;50.038;8.078;2023-04-09T09:45:35;22.45;;;15.38;;
23490;SDS011;14683;50.038;8.078;2023-04-09T09:48:06;22.42;;;15.18;;
23490;SDS011;14683;50.038;8.078;2023-04-09T09:50:33;21.55;;;15.30;;
23490;SDS011;14683;50.038;8.078;2023-04-09T09:53:03;19.92;;;14.43;;
23490;SDS011;14683;50.038;8.078;2023-04-09T09:55:31;23.00;;;14.77;;
23490;SDS011;14683;50.038;8.078;2023-04-09T09:57:58;22.52;;;15.07;;
23490;SDS011;14683;50.038;8.078;2023-04-09T10:00:29;21.20;;;14.15;;
23490;SDS011;14683;50.038;8.078;2023-04-09T10:03:43;22.42;;;14.35;;
23490;SDS011;14683;50.038;8.078;2023-04-09T10:05:48;21.17;;;13.63;;
23490;SDS011;14683;50.038;8.078;2023-04-09T10:08:14;20.75;;;14.77;;
23490;SDS011;14683;50.038;8.078;2023-04-09T10:10:41;20.95;;;13.35;;
23490;SDS011;14683;50.038;8.078;2023-04-09T10:13:08;20.10;;;14.63;;
23490;SDS011;14683;50.038;8.078;2023-04-09T10:15:40;19.45;;;14.05;;
23490;SDS011;14683;50.038;8.078;2023-04-09T10:18:09;20.63;;;14.00;;
23490;SDS011;14683;50.038;8.078;2023-04-09T10:20:38;21.60;;;13.95;;
23490;SDS011;14683;50.038;8.078;2023-04-09T10:23:08;21.20;;;14.25;;
23490;SDS011;14683;50.038;8.078;2023-04-09T10:25:36;20.70;;;13.27;;
23490;SDS011;14683;50.038;8.078;2023-04-09T10:28:05;20.27;;;13.43;;
23490;SDS011;14683;50.038;8.078;2023-04-09T10:30:40;20.77;;;13.82;;
23490;SDS011;14683;50.038;8.078;2023-04-09T10:33:12;19.67;;;13.45;;
23490;SDS011;14683;50.038;8.078;2023-04-09T10:35:39;18.27;;;12.65;;
23490;SDS011;14683;50.038;8.078;2023-04-09T10:40:47;19.15;;;13.25;;
23490;SDS011;14683;50.038;8.078;2023-04-09T10:43:14;17.75;;;13.13;;
23490;SDS011;14683;50.038;8.078;2023-04-09T10:45:44;20.40;;;13.90;;
23490;SDS011;14683;50.038;8.078;2023-04-09T10:48:12;15.13;;;11.05;;
23490;SDS011;14683;50.038;8.078;2023-04-09T10:50:41;14.80;;;10.75;;
23490;SDS011;14683;50.038;8.078;2023-04-09T10:53:19;14.93;;;11.30;;
23490;SDS011;14683;50.038;8.078;2023-04-09T10:55:47;22.00;;;13.98;;
23490;SDS011;14683;50.038;8.078;2023-04-09T10:58:17;12.07;;;9.27;;
23490;SDS011;14683;50.038;8.078;2023-04-09T11:00:44;10.98;;;8.38;;
23490;SDS011;14683;50.038;8.078;2023-04-09T11:03:20;10.93;;;8.07;;
23490;SDS011;14683;50.038;8.078;2023-04-09T11:06:09;10.10;;;7.60;;
23490;SDS011;14683;50.038;8.078;2023-04-09T11:08:36;7.25;;;6.53;;
23490;SDS011;14683;50.038;8.078;2023-04-09T11:11:07;8.30;;;6.82;;
23490;SDS011;14683;50.038;8.078;2023-04-09T11:13:33;5.93;;;5.30;;
23490;SDS011;14683;50.038;8.078;2023-04-09T11:15:59;6.20;;;5.60;;
23490;SDS011;14683;50.038;8.078;2023-04-09T11:18:28;6.00;;;5.35;;
23490;SDS011;14683;50.038;8.078;2023-04-09T11:20:55;7.45;;;5.10;;
23490;SDS011;14683;50.038;8.078;2023-04-09T11:23:22;6.15;;;5.05;;
23490;SDS011;14683;50.038;8.078;2023-04-09T11:25:49;6.22;;;5.38;;
23490;SDS011;14683;50.038;8.078;2023-04-09T11:28:15;6.60;;;5.35;;
23490;SDS011;14683;50.038;8.078;2023-04-09T11:30:42;6.93;;;5.82;;
23490;SDS011;14683;50.038;8.078;2023-04-09T11:33:08;6.32;;;5.28;;
23490;SDS011;14683;50.038;8.078;2023-04-09T11:35:35;8.40;;;6.47;;
23490;SDS011;14683;50.038;8.078;2023-04-09T11:38:04;7.55;;;6.07;;
23490;SDS011;14683;50.038;8.078;2023-04-09T11:40:34;6.00;;;5.13;;
23490;SDS011;14683;50.038;8.078;2023-04-09T11:43:01;7.20;;;5.93;;
23490;SDS011;14683;50.038;8.078;2023-04-09T11:45:28;3.85;;;3.55;;
23490;SDS011;14683;50.038;8.078;2023-04-09T11:47:55;3.97;;;3.55;;
23490;SDS011;14683;50.038;8.078;2023-04-09T11:50:21;5.15;;;4.63;;
23490;SDS011;14683;50.038;8.078;2023-04-09T11:55:24;5.30;;;4.80;;
23490;SDS011;14683;50.038;8.078;2023-04-09T11:58:01;4.85;;;4.43;;
23490;SDS011;14683;50.038;8.078;2023-04-09T12:00:27;4.70;;;4.30;;
23490;SDS011;14683;50.038;8.078;2023-04-09T12:02:57;5.30;;;4.80;;
23490;SDS011;14683;50.038;8.078;2023-04-09T12:05:27;5.13;;;4.63;;
23490;SDS011;14683;50.038;8.078;2023-04-09T12:07:59;5.18;;;4.25;;
23490;SDS011;14683;50.038;8.078;2023-04-09T12:10:32;5.47;;;4.85;;
23490;SDS011;14683;50.038;8.078;2023-04-09T12:13:00;5.00;;;4.50;;
23490;SDS011;14683;50.038;8.078;2023-04-09T12:15:33;5.03;;;4.28;;
23490;SDS011;14683;50.038;8.078;2023-04-09T12:18:06;4.97;;;4.47;;
23490;SDS011;14683;50.038;8.078;2023-04-09T12:20:34;5.45;;;4.93;;
23490;SDS011;14683;50.038;8.078;2023-04-09T12:23:01;7.63;;;6.03;;
23490;SDS011;14683;50.038;8.078;2023-04-09T12:25:32;8.32;;;7.03;;
23490;SDS011;14683;50.038;8.078;2023-04-09T12:28:02;6.65;;;5.65;;
23490;SDS011;14683;50.038;8.078;2023-04-09T12:30:30;6.78;;;5.32;;
23490;SDS011;14683;50.038;8.078;2023-04-09T12:32:57;7.60;;;5.05;;
23490;SDS011;14683;50.038;8.078;2023-04-09T12:35:23;5.93;;;5.35;;
23490;SDS011;14683;50.038;8.078;2023-04-09T12:37:49;5.35;;;4.85;;
23490;SDS011;14683;50.038;8.078;2023-04-09T12:40:16;5.35;;;4.85;;
23490;SDS011;14683;50.038;8.078;2023-04-09T12:42:43;5.32;;;4.82;;
23490;SDS011;14683;50.038;8.078;2023-04-09T12:45:10;5.93;;;5.05;;
23490;SDS011;14683;50.038;8.078;2023-04-09T12:47:38;5.93;;;5.30;;
23490;SDS011;14683;50.038;8.078;2023-04-09T12:52:30;7.75;;;5.70;;
23490;SDS011;14683;50.038;8.078;2023-04-09T12:54:56;8.75;;;6.50;;
23490;SDS011;14683;50.038;8.078;2023-04-09T12:57:22;6.57;;;5.47;;
23490;SDS011;14683;50.038;8.078;2023-04-09T12:59:48;7.90;;;6.18;;
23490;SDS011;14683;50.038;8.078;2023-04-09T13:02:14;7.22;;;6.45;;
23490;SDS011;14683;50.038;8.078;2023-04-09T13:04:40;7.35;;;6.25;;
23490;SDS011;14683;50.038;8.078;2023-04-09T13:07:07;7.57;;;6.78;;
23490;SDS011;14683;50.038;8.078;2023-04-09T13:09:33;7.35;;;6.55;;
23490;SDS011;14683;50.038;8.078;2023-04-09T13:12:00;8.02;;;6.72;;
23490;SDS011;14683;50.038;8.078;2023-04-09T13:14:26;8.57;;;7.25;;
23490;SDS011;14683;50.038;8.078;2023-04-09T13:16:52;9.02;;;7.30;;
23490;SDS011;14683;50.038;8.078;2023-04-09T13:19:18;7.03;;;6.32;;
23490;SDS011;14683;50.038;8.078;2023-04-09T13:24:10;8.57;;;7.07;;
23490;SDS011;14683;50.038;8.078;2023-04-09T13:26:36;9.73;;;7.38;;
23490;SDS011;14683;50.038;8.078;2023-04-09T13:29:03;9.73;;;7.68;;
23490;SDS011;14683;50.038;8.078;2023-04-09T13:31:29;9.85;;;8.02;;
23490;SDS011;14683;50.038;8.078;2023-04-09T13:36:21;7.63;;;6.82;;
23490;SDS011;14683;50.038;8.078;2023-04-09T13:38:47;8.23;;;6.55;;
23490;SDS011;14683;50.038;8.078;2023-04-09T13:41:13;7.45;;;6.57;;
23490;SDS011;14683;50.038;8.078;2023-04-09T13:43:40;5.97;;;5.40;;
23490;SDS011;14683;50.038;8.078;2023-04-09T13:46:06;5.78;;;5.18;;
23490;SDS011;14683;50.038;8.078;2023-04-09T13:48:32;7.68;;;6.13;;
23490;SDS011;14683;50.038;8.078;2023-04-09T13:50:58;6.93;;;6.22;;
23490;SDS011;14683;50.038;8.078;2023-04-09T13:53:24;8.40;;;6.05;;
23490;SDS011;14683;50.038;8.078;2023-04-09T13:55:50;6.53;;;5.90;;
23490;SDS011;14683;50.038;8.078;2023-04-09T13:58:16;7.60;;;6.18;;
23490;SDS011;14683;50.038;8.078;2023-04-09T14:00:42;7.35;;;5.78;;
23490;SDS011;14683;50.038;8.078;2023-04-09T14:03:08;6.78;;;5.80;;
23490;SDS011;14683;50.038;8.078;2023-04-09T14:05:34;6.75;;;5.80;;
23490;SDS011;14683;50.038;8.078;2023-04-09T14:08:00;6.88;;;5.40;;
23490;SDS011;14683;50.038;8.078;2023-04-09T14:10:26;5.80;;;5.07;;
23490;SDS011;14683;50.038;8.078;2023-04-09T14:12:52;5.28;;;4.78;;
23490;SDS011;14683;50.038;8.078;2023-04-09T14:15:18;6.40;;;4.80;;
23490;SDS011;14683;50.038;8.078;2023-04-09T14:17:44;6.25;;;5.65;;
23490;SDS011;14683;50.038;8.078;2023-04-09T14:20:10;5.35;;;4.85;;
23490;SDS011;14683;50.038;8.078;2023-04-09T14:22:36;5.70;;;5.20;;
23490;SDS011;14683;50.038;8.078;2023-04-09T14:25:02;6.57;;;5.00;;
23490;SDS011;14683;50.038;8.078;2023-04-09T14:27:29;6.40;;;5.10;;
23490;SDS011;14683;50.038;8.078;2023-04-09T14:32:21;5.93;;;5.32;;
23490;SDS011;14683;50.038;8.078;2023-04-09T14:34:47;6.25;;;5.57;;
23490;SDS011;14683;50.038;8.078;2023-04-09T14:37:13;6.38;;;5.68;;
23490;SDS011;14683;50.038;8.078;2023-04-09T14:39:39;7.15;;;6.00;;
23490;SDS011;14683;50.038;8.078;2023-04-09T14:42:05;7.05;;;5.28;;
23490;SDS011;14683;50.038;8.078;2023-04-09T14:44:31;5.93;;;5.32;;
23490;SDS011;14683;50.038;8.078;2023-04-09T14:46:57;7.28;;;5.65;;
23490;SDS011;14683;50.038;8.078;2023-04-09T14:49:24;6.72;;;5.75;;
23490;SDS011;14683;50.038;8.078;2023-04-09T14:51:50;5.80;;;5.20;;
23490;SDS011;14683;50.038;8.078;2023-04-09T14:54:16;6.15;;;5.45;;
23490;SDS011;14683;50.038;8.078;2023-04-09T14:56:42;7.25;;;5.82;;
23490;SDS011;14683;50.038;8.078;2023-04-09T14:59:08;6.05;;;5.40;;
23490;SDS011;14683;50.038;8.078;2023-04-09T15:01:34;5.85;;;5.20;;
23490;SDS011;14683;50.038;8.078;2023-04-09T15:04:00;6.25;;;5.50;;
23490;SDS011;14683;50.038;8.078;2023-04-09T15:06:27;7.03;;;5.43;;
23490;SDS011;14683;50.038;8.078;2023-04-09T15:08:53;6.00;;;5.40;;
23490;SDS011;14683;50.038;8.078;2023-04-09T15:11:19;7.55;;;5.50;;
23490;SDS011;14683;50.038;8.078;2023-04-09T15:13:47;5.80;;;4.55;;
23490;SDS011;14683;50.038;8.078;2023-04-09T15:16:23;5.10;;;4.60;;
23490;SDS011;14683;50.038;8.078;2023-04-09T15:18:50;6.00;;;5.13;;
23490;SDS011;14683;50.038;8.078;2023-04-09T15:21:16;6.82;;;5.50;;
23490;SDS011;14683;50.038;8.078;2023-04-09T15:23:43;5.95;;;5.28;;
23490;SDS011;14683;50.038;8.078;2023-04-09T15:26:09;5.63;;;5.05;;
23490;SDS011;14683;50.038;8.078;2023-04-09T15:28:35;6.60;;;5.57;;
23490;SDS011;14683;50.038;8.078;2023-04-09T15:33:27;6.45;;;5.70;;
23490;SDS011;14683;50.038;8.078;2023-04-09T15:35:53;6.40;;;4.88;;
23490;SDS011;14683;50.038;8.078;2023-04-09T15:38:19;6.03;;;5.22;;
23490;SDS011;14683;50.038;8.078;2023-04-09T15:40:46;5.25;;;4.75;;
23490;SDS011;14683;50.038;8.078;2023-04-09T15:45:38;5.28;;;4.70;;
23490;SDS011;14683;50.038;8.078;2023-04-09T15:48:04;7.10;;;5.80;;
23490;SDS011;14683;50.038;8.078;2023-04-09T15:52:56;7.18;;;5.72;;
23490;SDS011;14683;50.038;8.078;2023-04-09T15:55:22;5.80;;;5.20;;
23490;SDS011;14683;50.038;8.078;2023-04-09T15:57:48;6.82;;;5.88;;
23490;SDS011;14683;50.038;8.078;2023-04-09T16:00:14;6.75;;;5.72;;
23490;SDS011;14683;50.038;8.078;2023-04-09T16:02:40;6.55;;;5.85;;
23490;SDS011;14683;50.038;8.078;2023-04-09T16:05:06;6.43;;;5.57;;
23490;SDS011;14683;50.038;8.078;2023-04-09T16:07:32;13.25;;;10.13;;
23490;SDS011;14683;50.038;8.078;2023-04-09T16:10:01;7.93;;;6.55;;
23490;SDS011;14683;50.038;8.078;2023-04-09T16:12:29;6.30;;;5.65;;
23490;SDS011;14683;50.038;8.078;2023-04-09T16:14:55;7.72;;;6.72;;
23490;SDS011;14683;50.038;8.078;2023-04-09T16:17:21;6.95;;;5.65;;
23490;SDS011;14683;50.038;8.078;2023-04-09T16:19:47;6.80;;;5.60;;
23490;SDS011;14683;50.038;8.078;2023-04-09T16:22:13;5.72;;;5.15;;
23490;SDS011;14683;50.038;8.078;2023-04-09T16:24:39;5.90;;;5.30;;
23490;SDS011;14683;50.038;8.078;2023-04-09T16:29:31;9.43;;;6.50;;
23490;SDS011;14683;50.038;8.078;2023-04-09T16:31:57;5.85;;;5.30;;
23490;SDS011;14683;50.038;8.078;2023-04-09T16:34:23;6.30;;;5.28;;
23490;SDS011;14683;50.038;8.078;2023-04-09T16:36:49;6.97;;;5.90;;
23490;SDS011;14683;50.038;8.078;2023-04-09T16:39:17;5.60;;;5.05;;
23490;SDS011;14683;50.038;8.078;2023-04-09T16:41:43;4.95;;;4.45;;
23490;SDS011;14683;50.038;8.078;2023-04-09T16:44:09;6.20;;;5.57;;
23490;SDS011;14683;50.038;8.078;2023-04-09T16:46:35;6.30;;;5.30;;
23490;SDS011;14683;50.038;8.078;2023-04-09T16:49:01;6.25;;;5.57;;
23490;SDS011;14683;50.038;8.078;2023-04-09T16:51:27;5.55;;;4.95;;
23490;SDS011;14683;50.038;8.078;2023-04-09T16:53:53;7.05;;;6.13;;
23490;SDS011;14683;50.038;8.078;2023-04-09T16:56:19;7.18;;;5.95;;
23490;SDS011;14683;50.038;8.078;2023-04-09T16:58:45;5.85;;;5.25;;
23490;SDS011;14683;50.038;8.078;2023-04-09T17:01:11;5.75;;;5.15;;
23490;SDS011;14683;50.038;8.078;2023-04-09T17:03:37;5.78;;;5.18;;
23490;SDS011;14683;50.038;8.078;2023-04-09T17:06:04;6.18;;;5.50;;
23490;SDS011;14683;50.038;8.078;2023-04-09T17:08:30;5.93;;;5.32;;
23490;SDS011;14683;50.038;8.078;2023-04-09T17:13:31;5.25;;;4.70;;
23490;SDS011;14683;50.038;8.078;2023-04-09T17:16:00;6.78;;;5.82;;
23490;SDS011;14683;50.038;8.078;2023-04-09T17:18:27;6.72;;;5.68;;
23490;SDS011;14683;50.038;8.078;2023-04-09T17:20:54;5.60;;;5.03;;
23490;SDS011;14683;50.038;8.078;2023-04-09T17:23:21;6.28;;;5.53;;
23490;SDS011;14683;50.038;8.078;2023-04-09T17:25:48;6.18;;;5.63;;
23490;SDS011;14683;50.038;8.078;2023-04-09T17:28:14;6.78;;;6.05;;
23490;SDS011;14683;50.038;8.078;2023-04-09T17:33:07;6.50;;;5.85;;
23490;SDS011;14683;50.038;8.078;2023-04-09T17:35:33;5.82;;;5.22;;
23490;SDS011;14683;50.038;8.078;2023-04-09T17:37:59;6.22;;;4.88;;
23490;SDS011;14683;50.038;8.078;2023-04-09T17:40:26;5.22;;;4.72;;
23490;SDS011;14683;50.038;8.078;2023-04-09T17:42:53;5.30;;;4.80;;
23490;SDS011;14683;50.038;8.078;2023-04-09T17:45:19;6.35;;;5.60;;
23490;SDS011;14683;50.038;8.078;2023-04-09T17:47:45;5.90;;;5.22;;
23490;SDS011;14683;50.038;8.078;2023-04-09T17:50:11;5.18;;;4.68;;
23490;SDS011;14683;50.038;8.078;2023-04-09T17:52:37;5.85;;;5.03;;
23490;SDS011;14683;50.038;8.078;2023-04-09T17:55:08;5.20;;;4.70;;
23490;SDS011;14683;50.038;8.078;2023-04-09T17:57:38;5.70;;;4.78;;
23490;SDS011;14683;50.038;8.078;2023-04-09T18:00:05;6.00;;;4.18;;
23490;SDS011;14683;50.038;8.078;2023-04-09T18:02:32;4.47;;;3.92;;
23490;SDS011;14683;50.038;8.078;2023-04-09T18:04:59;4.60;;;4.20;;
23490;SDS011;14683;50.038;8.078;2023-04-09T18:09:55;4.50;;;4.10;;
23490;SDS011;14683;50.038;8.078;2023-04-09T18:12:21;4.53;;;3.80;;
23490;SDS011;14683;50.038;8.078;2023-04-09T18:19:40;5.90;;;4.85;;
23490;SDS011;14683;50.038;8.078;2023-04-09T18:22:07;4.90;;;4.47;;
23490;SDS011;14683;50.038;8.078;2023-04-09T18:24:33;5.00;;;4.50;;
23490;SDS011;14683;50.038;8.078;2023-04-09T18:26:59;4.63;;;4.22;;
23490;SDS011;14683;50.038;8.078;2023-04-09T18:29:28;5.68;;;4.78;;
23490;SDS011;14683;50.038;8.078;2023-04-09T18:31:55;5.20;;;4.65;;
23490;SDS011;14683;50.038;8.078;2023-04-09T18:34:22;4.97;;;4.57;;
23490;SDS011;14683;50.038;8.078;2023-04-09T18:36:49;5.28;;;4.47;;
23490;SDS011;14683;50.038;8.078;2023-04-09T18:39:15;5.60;;;4.82;;
23490;SDS011;14683;50.038;8.078;2023-04-09T18:41:42;4.97;;;4.50;;
23490;SDS011;14683;50.038;8.078;2023-04-09T18:44:08;4.93;;;4.38;;
23490;SDS011;14683;50.038;8.078;2023-04-09T18:46:34;4.63;;;4.22;;
23490;SDS011;14683;50.038;8.078;2023-04-09T18:49:00;9.77;;;6.55;;
23490;SDS011;14683;50.038;8.078;2023-04-09T18:51:26;6.18;;;5.13;;
23490;SDS011;14683;50.038;8.078;2023-04-09T18:53:52;6.07;;;4.72;;
23490;SDS011;14683;50.038;8.078;2023-04-09T18:56:19;7.35;;;4.43;;
23490;SDS011;14683;50.038;8.078;2023-04-09T18:58:48;4.82;;;4.30;;
23490;SDS011;14683;50.038;8.078;2023-04-09T19:01:16;4.97;;;4.07;;
23490;SDS011;14683;50.038;8.078;2023-04-09T19:03:44;5.50;;;4.75;;
23490;SDS011;14683;50.038;8.078;2023-04-09T19:06:15;6.63;;;5.63;;
23490;SDS011;14683;50.038;8.078;2023-04-09T19:08:42;5.85;;;4.95;;
23490;SDS011;14683;50.038;8.078;2023-04-09T19:11:12;5.35;;;4.85;;
23490;SDS011;14683;50.038;8.078;2023-04-09T19:13:38;4.93;;;4.50;;
23490;SDS011;14683;50.038;8.078;2023-04-09T19:16:05;5.45;;;4.40;;
23490;SDS011;14683;50.038;8.078;2023-04-09T19:18:34;5.35;;;4.78;;
23490;SDS011;14683;50.038;8.078;2023-04-09T19:21:01;5.18;;;4.68;;
23490;SDS011;14683;50.038;8.078;2023-04-09T19:25:54;5.13;;;4.60;;
23490;SDS011;14683;50.038;8.078;2023-04-09T19:30:46;5.90;;;4.53;;
23490;SDS011;14683;50.038;8.078;2023-04-09T19:33:15;6.38;;;4.93;;
23490;SDS011;14683;50.038;8.078;2023-04-09T19:35:42;5.30;;;4.80;;
23490;SDS011;14683;50.038;8.078;2023-04-09T19:38:08;5.65;;;5.05;;
23490;SDS011;14683;50.038;8.078;2023-04-09T19:40:34;5.32;;;4.35;;
23490;SDS011;14683;50.038;8.078;2023-04-09T19:43:00;5.20;;;4.70;;
23490;SDS011;14683;50.038;8.078;2023-04-09T19:47:52;9.13;;;4.90;;
23490;SDS011;14683;50.038;8.078;2023-04-09T19:52:44;9.40;;;6.65;;
23490;SDS011;14683;50.038;8.078;2023-04-09T19:55:10;7.93;;;6.07;;
23490;SDS011;14683;50.038;8.078;2023-04-09T20:00:02;8.00;;;6.50;;
23490;SDS011;14683;50.038;8.078;2023-04-09T20:02:37;7.55;;;4.93;;
23490;SDS011;14683;50.038;8.078;2023-04-09T20:05:04;7.05;;;5.25;;
23490;SDS011;14683;50.038;8.078;2023-04-09T20:07:30;5.38;;;4.80;;
23490;SDS011;14683;50.038;8.078;2023-04-09T20:09:56;6.93;;;5.20;;
23490;SDS011;14683;50.038;8.078;2023-04-09T20:14:52;5.68;;;5.03;;
23490;SDS011;14683;50.038;8.078;2023-04-09T20:17:18;6.22;;;5.00;;
23490;SDS011;14683;50.038;8.078;2023-04-09T20:19:45;7.18;;;5.30;;
23490;SDS011;14683;50.038;8.078;2023-04-09T20:22:11;6.78;;;5.32;;
23490;SDS011;14683;50.038;8.078;2023-04-09T20:27:03;6.88;;;5.93;;
23490;SDS011;14683;50.038;8.078;2023-04-09T20:29:29;7.30;;;6.13;;
23490;SDS011;14683;50.038;8.078;2023-04-09T20:31:55;7.22;;;5.40;;
23490;SDS011;14683;50.038;8.078;2023-04-09T20:34:22;5.30;;;4.43;;
23490;SDS011;14683;50.038;8.078;2023-04-09T20:36:51;4.90;;;4.45;;
23490;SDS011;14683;50.038;8.078;2023-04-09T20:39:18;5.47;;;4.95;;
23490;SDS011;14683;50.038;8.078;2023-04-09T20:41:45;4.80;;;4.40;;
23490;SDS011;14683;50.038;8.078;2023-04-09T20:44:11;6.82;;;5.07;;
